createdAt,value
2023-05-12T00:00:33.540Z,9.90
2023-05-12T00:03:03.779Z,9.90
2023-05-12T00:05:32.295Z,9.90
2023-05-12T00:08:01.921Z,9.80
2023-05-12T00:10:30.282Z,9.80
2023-05-12T00:12:58.629Z,9.80
2023-05-12T00:15:26.876Z,9.80
2023-05-12T00:17:55.211Z,9.70
2023-05-12T00:20:23.565Z,9.70
2023-05-12T00:22:52.025Z,9.70
2023-05-12T00:25:21.769Z,9.70
2023-05-12T00:27:50.061Z,9.60
2023-05-12T00:30:18.965Z,9.60
2023-05-12T00:32:47.621Z,9.60
2023-05-12T00:35:16.333Z,9.50
2023-05-12T00:37:44.837Z,9.50
2023-05-12T00:40:13.413Z,9.50
2023-05-12T00:42:43.621Z,9.40
2023-05-12T00:45:12.823Z,9.40
2023-05-12T00:47:41.684Z,9.30
2023-05-12T00:50:10.935Z,9.30
2023-05-12T00:52:39.345Z,9.30
2023-05-12T00:55:08.185Z,9.30
2023-05-12T00:57:36.492Z,9.20
2023-05-12T01:00:07.580Z,9.20
2023-05-12T01:02:36.706Z,9.20
2023-05-12T01:05:06.530Z,9.20
2023-05-12T01:07:35.189Z,9.20
2023-05-12T01:10:04.107Z,9.10
2023-05-12T01:12:35.635Z,9.10
2023-05-12T01:15:06.416Z,9.10
2023-05-12T01:17:37.816Z,9.10
2023-05-12T01:20:10.085Z,9.10
2023-05-12T01:22:40.179Z,9.00
2023-05-12T01:25:12.761Z,9.00
2023-05-12T01:27:44.214Z,9.00
2023-05-12T01:30:16.873Z,9.00
2023-05-12T01:32:46.088Z,9.00
2023-05-12T01:35:14.639Z,9.00
2023-05-12T01:37:48.655Z,9.00
2023-05-12T01:40:18.106Z,9.00
2023-05-12T01:42:48.283Z,9.00
2023-05-12T01:45:16.751Z,9.00
2023-05-12T01:47:45.347Z,9.00
2023-05-12T01:50:13.735Z,9.00
2023-05-12T01:52:42.400Z,9.10
2023-05-12T01:55:13.707Z,9.10
2023-05-12T01:58:03.609Z,9.10
2023-05-12T02:00:33.002Z,9.10
2023-05-12T02:03:02.752Z,9.10
2023-05-12T02:05:31.401Z,9.10
2023-05-12T02:08:00.456Z,9.10
2023-05-12T02:10:28.860Z,9.20
2023-05-12T02:12:57.147Z,9.20
2023-05-12T02:15:27.408Z,9.10
2023-05-12T02:17:58.194Z,9.20
2023-05-12T02:20:28.993Z,9.20
2023-05-12T02:22:57.465Z,9.20
2023-05-12T02:25:25.829Z,9.20
2023-05-12T02:27:54.193Z,9.20
2023-05-12T02:30:22.735Z,9.10
2023-05-12T02:32:52.689Z,9.20
2023-05-12T02:35:21.560Z,9.10
2023-05-12T02:37:49.918Z,9.10
2023-05-12T02:40:18.756Z,9.10
2023-05-12T02:42:47.206Z,9.10
2023-05-12T02:45:15.685Z,9.10
2023-05-12T02:47:44.194Z,9.10
2023-05-12T02:50:14.050Z,9.10
2023-05-12T02:52:42.357Z,9.00
2023-05-12T02:55:11.221Z,9.00
2023-05-12T02:57:39.842Z,8.90
2023-05-12T03:00:09.183Z,8.90
2023-05-12T03:02:41.290Z,8.90
2023-05-12T03:05:10.281Z,8.80
2023-05-12T03:07:40.644Z,8.80
2023-05-12T03:10:10.937Z,8.70
2023-05-12T03:12:39.254Z,8.70
2023-05-12T03:15:08.993Z,8.70
2023-05-12T03:17:37.497Z,8.60
2023-05-12T03:20:07.088Z,8.60
2023-05-12T03:22:35.784Z,8.60
2023-05-12T03:25:06.085Z,8.50
2023-05-12T03:27:34.563Z,8.50
2023-05-12T03:30:05.149Z,8.50
2023-05-12T03:32:39.211Z,8.40
2023-05-12T03:35:10.618Z,8.40
2023-05-12T03:37:39.082Z,8.40
2023-05-12T03:40:11.472Z,8.40
2023-05-12T03:42:39.859Z,8.40
2023-05-12T03:45:11.015Z,8.50
2023-05-12T03:47:40.649Z,8.50
2023-05-12T03:50:10.065Z,8.60
2023-05-12T03:52:38.861Z,8.70
2023-05-12T03:55:10.424Z,8.70
2023-05-12T03:57:38.901Z,8.80
2023-05-12T04:00:08.502Z,8.90
2023-05-12T04:02:46.491Z,8.90
2023-05-12T04:05:16.246Z,9.00
2023-05-12T04:07:44.563Z,9.10
2023-05-12T04:10:14.294Z,9.10
2023-05-12T04:12:42.702Z,9.20
2023-05-12T04:15:14.465Z,9.20
2023-05-12T04:17:42.916Z,9.20
2023-05-12T04:20:11.689Z,9.30
2023-05-12T04:22:40.510Z,9.30
2023-05-12T04:25:09.964Z,9.30
2023-05-12T04:27:39.998Z,9.40
2023-05-12T04:30:09.646Z,9.40
2023-05-12T04:32:39.848Z,9.40
2023-05-12T04:35:09.567Z,9.50
2023-05-12T04:37:37.986Z,9.50
2023-05-12T04:40:08.092Z,9.50
2023-05-12T04:42:36.471Z,9.50
2023-05-12T04:45:07.486Z,9.50
2023-05-12T04:47:35.894Z,9.60
2023-05-12T04:50:04.592Z,9.60
2023-05-12T04:52:33.140Z,9.60
2023-05-12T04:55:01.684Z,9.60
2023-05-12T04:57:30.253Z,9.60
2023-05-12T04:59:59.486Z,9.70
2023-05-12T05:02:30.157Z,9.70
2023-05-12T05:05:01.878Z,9.70
2023-05-12T05:07:31.548Z,9.70
2023-05-12T05:10:00.131Z,9.70
2023-05-12T05:12:28.502Z,9.80
2023-05-12T05:14:56.917Z,9.80
2023-05-12T05:17:25.272Z,9.80
2023-05-12T05:19:59.047Z,9.80
2023-05-12T05:22:30.850Z,9.80
2023-05-12T05:24:59.484Z,9.80
2023-05-12T05:27:29.185Z,9.90
2023-05-12T05:29:58.083Z,9.90
2023-05-12T05:32:26.985Z,9.90
2023-05-12T05:34:56.784Z,10.00
2023-05-12T05:37:25.503Z,10.00
2023-05-12T05:39:53.909Z,10.10
2023-05-12T05:42:22.297Z,10.10
2023-05-12T05:44:50.919Z,10.20
2023-05-12T21:32:10.789Z,12.40
2023-05-12T21:34:39.196Z,12.40
2023-05-12T21:37:07.474Z,12.40
2023-05-12T21:39:35.706Z,12.40
2023-05-12T21:42:04.149Z,12.50
2023-05-12T21:44:32.486Z,12.50
2023-05-12T21:47:00.747Z,12.40
2023-05-12T21:49:30.381Z,12.50
2023-05-12T21:51:58.755Z,12.40
2023-05-12T21:54:27.156Z,12.40
2023-05-12T21:56:55.531Z,12.40
2023-05-12T21:59:25.103Z,12.40
2023-05-12T22:01:53.494Z,12.40
2023-05-12T22:04:22.032Z,12.40
2023-05-12T22:06:51.870Z,12.40
2023-05-12T22:09:20.507Z,12.50
2023-05-12T22:11:49.231Z,12.40
2023-05-12T22:14:17.516Z,12.40
2023-05-12T22:16:45.897Z,12.50
2023-05-12T22:19:14.221Z,12.50
2023-05-12T22:21:42.649Z,12.50
2023-05-12T22:24:12.341Z,12.40
2023-05-12T22:26:41.274Z,12.40
2023-05-12T22:29:09.607Z,12.40
2023-05-12T22:31:37.930Z,12.40
2023-05-12T22:34:06.391Z,12.40
2023-05-12T22:36:34.979Z,12.40
2023-05-12T22:39:03.870Z,12.40
2023-05-12T22:41:33.545Z,12.30
2023-05-12T22:44:01.941Z,12.40
2023-05-12T22:46:30.369Z,12.40
2023-05-12T22:48:58.907Z,12.30
2023-05-12T22:51:27.390Z,12.40
2023-05-12T22:53:55.676Z,12.40
2023-05-12T22:56:23.953Z,12.40
2023-05-12T22:58:53.722Z,12.40
2023-05-12T23:01:22.199Z,12.40
2023-05-12T23:03:50.606Z,12.40
2023-05-12T23:06:19.058Z,12.40
2023-05-12T23:08:47.419Z,12.40
2023-05-12T23:11:15.857Z,12.30
2023-05-12T23:13:44.210Z,12.40
2023-05-12T23:16:13.876Z,12.40
2023-05-12T23:18:42.293Z,12.40
2023-05-12T23:21:10.664Z,12.40
2023-05-12T23:23:39.043Z,12.30
2023-05-12T23:26:07.386Z,12.40
2023-05-12T23:28:35.787Z,12.40
2023-05-12T23:31:04.410Z,12.40
2023-05-12T23:33:34.392Z,12.40
2023-05-12T23:36:02.851Z,12.40
2023-05-12T23:38:31.254Z,12.40
2023-05-12T23:40:59.535Z,12.40
2023-05-12T23:43:28.089Z,12.40
2023-05-12T23:45:56.427Z,12.30
2023-05-12T23:48:24.705Z,12.30
2023-05-12T23:50:54.549Z,12.40
2023-05-12T23:53:23.220Z,12.40
2023-05-12T23:55:51.492Z,12.40
2023-05-12T23:58:19.848Z,12.40
